Kinsman, Illinois
Current Conditions -  °F | °C
As of 11:35 PM on Sunday 21 Dec 2014 (Local Time) from KC09 Reporting Station
Scattered Clouds Scattered Clouds  
Wind Chill: 25°   Ceiling: Unl
Heat Index: 33°   Visibility: 7mi
Dew Point: 31°   Wind: 9mph
Humidity: 91%   Direction: 140°SE
Pressure: 30"   Gusts: NA
Location:  41.19°N, 88.57°W
Report Text: KC09 220535Z AUTO 14008KT 7SM SCT047 01/M01 A3000 RMK AO2 T00061007
Loading
Personal Weather Stations






























Interactive Weather Map New forecast layout! Learn more

10-Day Weather Forecast

Advertisements
Track Severe Weather on mobile